Haslett, Michigan
Current Conditions -  °F | °C
As of 12:53 PM on Monday 26 Jan 2015 (Local Time) from KLAN Reporting Station
Few Clouds Few Clouds  
Wind Chill: 15°   Ceiling: Unl
Heat Index: 21°   Visibility: 10mi
Dew Point:   Wind: 5mph
Humidity: 57%   Direction: 70°ENE
Pressure: 29.92"   Gusts: NA
Location:  42.75°N, 84.41°W
Report Text: KLAN 261753Z 07004KT 10SM FEW090 M06/M13 A2992 RMK AO2 SLP148 I6000 T10611133 11061 21133 58013
Loading
Personal Weather Stations






























Interactive Weather Map New forecast layout! Learn more

10-Day Weather Forecast

Advertisements
Track Severe Weather on mobile